Time;durP1;ratioP1;P1;durP2;ratioP2;P2;SDS_P1;SDS_P2;PMS_P1;PMS_P2;Temp;Humidity;BMP_temperature;BMP_pressure;BME280_temperature;BME280_humidity;BME280_pressure;Samples;Min_cycle;Max_cycle;Signal;HPM_P1;HPM_P2
2021/06/06 00:00:25;;;;;;;0.82;0.73;;;16.90;99.90;;;;;;4993596;28;20054;-74
2021/06/06 00:02:52;;;;;;;1.02;0.93;;;16.90;99.90;;;;;;4994130;28;20034;-74
2021/06/06 00:05:18;;;;;;;1.25;0.77;;;17.00;99.90;;;;;;4976751;28;20410;-75
2021/06/06 00:07:44;;;;;;;0.60;0.60;;;16.90;99.90;;;;;;4993905;28;20102;-74
2021/06/06 00:10:11;;;;;;;1.08;0.70;;;16.80;99.90;;;;;;4976139;28;20569;-74
2021/06/06 00:12:37;;;;;;;2.42;0.70;;;16.90;99.90;;;;;;4993388;28;20030;-74
2021/06/06 00:15:07;;;;;;;0.98;0.93;;;16.90;99.90;;;;;;4993843;28;20084;-74
2021/06/06 00:17:33;;;;;;;1.25;0.70;;;17.00;99.90;;;;;;4994368;28;20105;-74
2021/06/06 00:19:59;;;;;;;2.15;0.90;;;17.00;99.90;;;;;;4995214;28;20061;-74
2021/06/06 00:22:24;;;;;;;1.80;0.80;;;16.90;99.90;;;;;;5017666;28;20022;-72
2021/06/06 00:24:50;;;;;;;0.88;0.88;;;16.90;99.90;;;;;;4998484;28;20010;-74
2021/06/06 00:27:15;;;;;;;0.90;0.63;;;17.00;99.90;;;;;;4993846;28;20034;-75
2021/06/06 00:29:41;;;;;;;1.25;0.65;;;17.00;99.90;;;;;;4993272;28;20404;-74
2021/06/06 00:32:07;;;;;;;0.70;0.68;;;17.10;99.90;;;;;;4993479;28;20033;-73
2021/06/06 00:34:33;;;;;;;2.58;0.80;;;17.00;99.90;;;;;;4993768;28;20108;-75
2021/06/06 00:36:58;;;;;;;1.70;0.90;;;17.00;99.90;;;;;;4993929;28;20031;-74
2021/06/06 00:39:24;;;;;;;1.38;0.80;;;17.10;99.90;;;;;;4992974;28;20026;-75
2021/06/06 00:41:51;;;;;;;4.50;0.60;;;17.10;99.90;;;;;;4993167;28;20034;-72
2021/06/06 00:44:18;;;;;;;0.60;0.60;;;17.10;99.90;;;;;;4994260;28;20109;-75
2021/06/06 00:46:44;;;;;;;1.30;0.73;;;17.00;99.90;;;;;;4994197;28;20030;-74
2021/06/06 00:49:11;;;;;;;5.28;0.80;;;16.90;99.90;;;;;;4994981;28;20026;-74
2021/06/06 00:51:56;;;;;;;2.17;0.80;;;16.90;99.90;;;;;;4992581;28;20030;-74
2021/06/06 00:54:36;;;;;;;0.80;0.80;;;16.90;99.90;;;;;;4993271;28;20046;-74
2021/06/06 00:57:24;;;;;;;2.13;0.77;;;16.90;99.90;;;;;;4992858;28;20039;-74
2021/06/06 01:00:08;;;;;;;2.45;0.70;;;16.80;99.90;;;;;;4992822;28;20038;-74
2021/06/06 01:02:34;;;;;;;0.60;0.60;;;16.90;99.90;;;;;;4993059;28;20444;-74
2021/06/06 01:05:00;;;;;;;0.60;0.60;;;16.90;99.90;;;;;;4992767;28;20026;-74
2021/06/06 01:07:26;;;;;;;1.00;0.90;;;16.90;99.90;;;;;;4993156;28;20448;-74
2021/06/06 01:09:51;;;;;;;2.25;1.00;;;16.80;99.90;;;;;;4993402;28;20038;-75
2021/06/06 01:12:22;;;;;;;1.33;0.73;;;16.80;99.90;;;;;;4994555;28;20105;-75
2021/06/06 01:14:56;;;;;;;2.20;0.85;;;16.70;99.90;;;;;;4975981;28;20034;-74
2021/06/06 01:17:41;;;;;;;0.93;0.93;;;16.70;99.90;;;;;;4975268;28;20030;-74
2021/06/06 01:20:17;;;;;;;2.50;1.05;;;16.60;99.90;;;;;;4992143;28;20030;-73
2021/06/06 01:22:59;;;;;;;0.70;0.70;;;16.70;99.90;;;;;;4992558;28;20037;-74
2021/06/06 01:25:30;;;;;;;1.40;0.75;;;16.60;99.90;;;;;;4991922;28;20022;-74
2021/06/06 01:28:01;;;;;;;0.73;0.73;;;16.60;99.90;;;;;;4992724;28;20030;-74
2021/06/06 01:30:31;;;;;;;1.38;1.02;;;16.50;99.90;;;;;;4991917;28;20409;-75
2021/06/06 01:33:23;;;;;;;1.23;1.15;;;16.50;99.90;;;;;;4994246;28;20034;-74
2021/06/06 01:36:01;;;;;;;0.90;0.90;;;16.60;99.90;;;;;;4994789;28;20468;-75
2021/06/06 01:38:35;;;;;;;1.00;0.90;;;16.60;99.90;;;;;;4993084;28;20289;-75
2021/06/06 01:41:07;;;;;;;2.45;0.98;;;16.70;99.90;;;;;;4991533;28;20042;-74
2021/06/06 01:43:38;;;;;;;0.90;0.80;;;16.60;99.90;;;;;;4992613;28;20018;-74
2021/06/06 01:46:12;;;;;;;3.05;0.98;;;16.60;99.90;;;;;;4992789;28;20113;-74
2021/06/06 01:48:39;;;;;;;1.15;0.90;;;16.70;99.90;;;;;;4993041;28;20128;-74
2021/06/06 01:51:11;;;;;;;1.50;0.93;;;16.60;99.90;;;;;;4992022;28;20044;-73
2021/06/06 01:53:41;;;;;;;0.83;0.80;;;16.50;99.90;;;;;;4991937;28;20543;-74
2021/06/06 01:56:07;;;;;;;2.90;0.93;;;16.50;99.90;;;;;;4991657;28;20309;-74
2021/06/06 01:58:34;;;;;;;1.33;0.80;;;16.40;99.90;;;;;;4974748;28;20496;-73
2021/06/06 02:01:09;;;;;;;2.05;0.85;;;16.40;99.90;;;;;;4991118;28;20058;-73
2021/06/06 02:03:35;;;;;;;1.73;0.88;;;16.40;99.90;;;;;;4992105;28;20038;-74
2021/06/06 02:06:02;;;;;;;0.90;0.90;;;16.40;99.90;;;;;;4991937;28;20030;-74
2021/06/06 02:08:32;;;;;;;0.80;0.80;;;16.50;99.90;;;;;;4991916;28;20435;-74
2021/06/06 02:11:16;;;;;;;0.80;0.80;;;16.50;99.90;;;;;;5001628;28;20026;-73
2021/06/06 02:13:46;;;;;;;0.90;0.90;;;16.50;99.90;;;;;;4991925;28;20073;-74
2021/06/06 02:16:16;;;;;;;0.73;0.73;;;16.60;99.90;;;;;;4991949;28;20049;-74
2021/06/06 02:18:42;;;;;;;1.95;0.70;;;16.70;99.90;;;;;;4991960;28;20022;-74
2021/06/06 02:21:08;;;;;;;2.15;0.82;;;16.60;99.90;;;;;;4991088;28;20034;-74
2021/06/06 02:23:37;;;;;;;0.85;0.85;;;16.60;99.90;;;;;;4992133;28;20129;-74
2021/06/06 02:26:34;;;;;;;0.98;0.90;;;16.50;99.90;;;;;;4973974;28;20022;-74
2021/06/06 02:29:19;;;;;;;2.05;1.10;;;16.60;99.90;;;;;;4991911;28;20018;-74
2021/06/06 02:32:07;;;;;;;1.20;0.90;;;16.50;99.90;;;;;;4991304;28;20688;-74
2021/06/06 02:35:05;;;;;;;2.15;0.80;;;16.60;99.90;;;;;;4991858;28;20041;-73
2021/06/06 02:37:40;;;;;;;0.90;0.90;;;16.60;99.90;;;;;;4967623;28;20038;-74
2021/06/06 02:40:16;;;;;;;2.08;0.60;;;16.40;99.90;;;;;;4995093;28;20118;-73
2021/06/06 02:42:44;;;;;;;2.15;0.80;;;16.40;99.90;;;;;;4995542;28;20023;-74
2021/06/06 02:45:17;;;;;;;0.65;0.65;;;16.50;99.90;;;;;;4995314;28;20391;-73
2021/06/06 02:47:45;;;;;;;0.82;0.82;;;16.50;99.90;;;;;;4995856;28;20102;-74
2021/06/06 02:50:25;;;;;;;0.93;0.85;;;16.50;99.90;;;;;;4994979;28;20019;-74
2021/06/06 02:53:20;;;;;;;0.80;0.80;;;16.30;99.90;;;;;;4995529;28;20030;-74
2021/06/06 02:55:50;;;;;;;0.70;0.70;;;16.30;99.90;;;;;;4987163;28;20054;-74
2021/06/06 02:58:38;;;;;;;0.80;0.80;;;16.30;99.90;;;;;;4994950;28;20018;-73
2021/06/06 03:01:10;;;;;;;1.10;0.77;;;16.20;99.90;;;;;;4994619;28;20027;-73
2021/06/06 03:03:38;;;;;;;3.88;1.00;;;16.20;99.90;;;;;;4995525;28;20022;-74
2021/06/06 03:06:08;;;;;;;0.70;0.70;;;16.10;99.90;;;;;;4994907;28;20062;-74
2021/06/06 03:08:35;;;;;;;1.15;0.90;;;16.00;99.90;;;;;;4995303;28;20101;-73
2021/06/06 03:11:03;;;;;;;1.23;1.13;;;15.90;99.90;;;;;;4994248;28;20022;-74
2021/06/06 03:13:44;;;;;;;3.40;1.27;;;16.00;99.90;;;;;;4994328;28;20030;-74
2021/06/06 03:16:12;;;;;;;1.23;1.00;;;16.00;99.90;;;;;;4994859;28;20457;-74
2021/06/06 03:18:40;;;;;;;0.77;0.77;;;16.00;99.90;;;;;;4994992;28;20119;-74
2021/06/06 03:21:27;;;;;;;1.88;1.20;;;15.90;99.90;;;;;;4994225;28;20061;-74
2021/06/06 03:24:04;;;;;;;1.10;0.90;;;15.90;99.90;;;;;;4993970;28;20026;-74
2021/06/06 03:26:33;;;;;;;0.80;0.80;;;15.90;99.90;;;;;;4995069;28;20022;-74
2021/06/06 03:29:01;;;;;;;0.80;0.75;;;16.00;99.90;;;;;;4994802;28;20034;-73
2021/06/06 03:31:37;;;;;;;1.20;0.80;;;15.80;99.90;;;;;;4994059;28;20099;-74
2021/06/06 03:34:05;;;;;;;0.60;0.60;;;15.90;99.90;;;;;;4987230;28;20084;-74
2021/06/06 03:36:46;;;;;;;0.90;0.88;;;15.90;99.90;;;;;;4996573;28;20025;-74
2021/06/06 03:39:15;;;;;;;1.13;1.00;;;15.80;99.90;;;;;;5014242;28;20026;-74
2021/06/06 03:41:42;;;;;;;0.73;0.73;;;15.80;99.90;;;;;;4995560;28;20121;-73
2021/06/06 03:44:08;;;;;;;0.82;0.82;;;15.80;99.90;;;;;;5007529;28;20097;-74
2021/06/06 03:46:37;;;;;;;1.10;1.00;;;15.80;99.90;;;;;;4975978;28;20477;-74
2021/06/06 03:49:04;;;;;;;2.65;0.95;;;15.80;99.90;;;;;;4976598;28;20168;-74
2021/06/06 03:51:30;;;;;;;0.80;0.77;;;15.80;99.90;;;;;;4993757;28;20374;-74
2021/06/06 03:53:55;;;;;;;1.20;1.10;;;15.80;99.90;;;;;;4993585;28;20436;-74
2021/06/06 03:56:21;;;;;;;3.53;1.20;;;15.70;99.90;;;;;;4994747;28;20090;-73
2021/06/06 03:58:48;;;;;;;0.90;0.90;;;15.70;99.90;;;;;;4992512;28;20038;-74
2021/06/06 04:01:14;;;;;;;0.85;0.85;;;15.70;99.90;;;;;;4994861;28;20026;-74
2021/06/06 04:03:40;;;;;;;1.23;1.15;;;15.80;99.90;;;;;;4996161;28;20025;-74
2021/06/06 04:06:06;;;;;;;2.25;0.90;;;15.80;99.90;;;;;;4994217;28;20370;-74
2021/06/06 04:08:32;;;;;;;1.13;1.02;;;15.80;99.90;;;;;;4993882;28;20120;-74
2021/06/06 04:10:58;;;;;;;2.67;1.00;;;15.70;99.90;;;;;;4994562;28;20385;-74
2021/06/06 04:13:24;;;;;;;2.38;1.25;;;15.80;99.90;;;;;;4995665;28;20120;-73
2021/06/06 04:15:50;;;;;;;1.10;1.10;;;15.90;99.90;;;;;;5013158;28;20026;-73
2021/06/06 04:18:23;;;;;;;1.50;1.27;;;16.00;99.90;;;;;;4995800;28;20113;-72
2021/06/06 04:20:51;;;;;;;1.65;1.25;;;16.00;99.90;;;;;;5012593;28;20388;-73
2021/06/06 04:23:17;;;;;;;2.35;1.23;;;15.90;99.90;;;;;;5013454;28;20477;-74
2021/06/06 04:25:44;;;;;;;0.90;0.90;;;16.00;99.90;;;;;;5013059;28;20084;-74
2021/06/06 04:28:11;;;;;;;1.30;1.13;;;15.90;99.90;;;;;;5013370;28;20030;-74
2021/06/06 04:30:38;;;;;;;1.20;1.10;;;15.80;99.90;;;;;;5012259;28;20129;-74
2021/06/06 04:33:07;;;;;;;1.08;1.08;;;15.90;99.90;;;;;;5013572;28;20477;-74
2021/06/06 04:35:40;;;;;;;0.90;0.90;;;15.90;99.90;;;;;;4995601;28;20399;-72
2021/06/06 04:38:08;;;;;;;0.80;0.80;;;15.80;99.90;;;;;;5013023;28;20034;-74
2021/06/06 04:40:34;;;;;;;3.85;1.08;;;15.80;99.90;;;;;;5012420;28;20029;-73
2021/06/06 04:43:00;;;;;;;1.42;1.02;;;15.90;99.90;;;;;;5012981;28;20061;-74
2021/06/06 04:45:26;;;;;;;1.30;1.20;;;15.90;99.90;;;;;;5012447;28;20022;-75
2021/06/06 04:47:52;;;;;;;1.23;1.05;;;16.00;99.90;;;;;;5012952;28;20022;-74
2021/06/06 04:50:19;;;;;;;1.52;0.93;;;16.00;99.90;;;;;;5012063;28;20030;-75
2021/06/06 04:52:45;;;;;;;1.63;1.00;;;16.00;99.90;;;;;;5012863;28;20555;-74
2021/06/06 04:55:16;;;;;;;4.63;1.10;;;15.90;99.90;;;;;;5012595;28;20037;-74
2021/06/06 04:57:42;;;;;;;0.85;0.85;;;15.90;99.90;;;;;;4984737;23;20065;-69
2021/06/06 05:00:11;;;;;;;2.45;1.00;;;16.00;99.90;;;;;;4967884;28;20046;-69
2021/06/06 05:02:37;;;;;;;1.20;1.10;;;16.00;99.90;;;;;;4972064;28;20069;-69
2021/06/06 05:05:03;;;;;;;2.95;0.88;;;16.00;99.90;;;;;;4973763;28;20050;-69
2021/06/06 05:07:29;;;;;;;1.23;0.90;;;15.90;99.90;;;;;;4973379;28;20504;-69
2021/06/06 05:09:55;;;;;;;0.65;0.65;;;15.90;99.90;;;;;;4972390;28;20034;-69
2021/06/06 05:12:21;;;;;;;0.80;0.80;;;15.90;99.90;;;;;;4973027;28;20031;-69
2021/06/06 05:14:46;;;;;;;0.98;0.98;;;16.10;99.90;;;;;;4973147;28;20110;-69
2021/06/06 05:17:12;;;;;;;1.30;0.80;;;16.20;99.90;;;;;;4972717;28;20027;-71
2021/06/06 05:19:38;;;;;;;0.70;0.70;;;16.00;99.90;;;;;;4972509;28;20031;-69
2021/06/06 05:22:05;;;;;;;1.58;0.70;;;15.80;99.90;;;;;;4972833;28;20027;-70
2021/06/06 05:24:31;;;;;;;2.88;0.85;;;15.70;99.90;;;;;;4973221;28;20504;-70
2021/06/06 05:26:57;;;;;;;0.60;0.60;;;15.70;99.90;;;;;;4972711;28;20027;-69
2021/06/06 05:29:23;;;;;;;1.05;0.68;;;15.60;99.90;;;;;;4972294;28;20029;-70
2021/06/06 05:31:49;;;;;;;0.80;0.80;;;15.70;99.90;;;;;;4973007;28;20117;-70
2021/06/06 05:34:15;;;;;;;0.95;0.70;;;15.80;99.90;;;;;;4972793;28;20018;-69
2021/06/06 05:36:41;;;;;;;0.57;0.57;;;16.00;99.90;;;;;;4972588;28;20027;-69
2021/06/06 05:39:07;;;;;;;0.93;0.60;;;15.90;99.90;;;;;;4972932;28;20400;-69
2021/06/06 05:41:33;;;;;;;0.47;0.47;;;16.00;99.90;;;;;;4970555;28;20472;-69
2021/06/06 05:43:59;;;;;;;0.65;0.65;;;15.90;99.90;;;;;;4973364;28;20058;-68
2021/06/06 05:46:24;;;;;;;1.80;0.85;;;16.00;99.90;;;;;;4971135;28;20027;-69
2021/06/06 05:48:50;;;;;;;1.95;0.63;;;16.00;99.90;;;;;;4971183;28;20027;-69
2021/06/06 05:51:17;;;;;;;0.80;0.80;;;16.10;99.90;;;;;;4972051;28;20038;-70
2021/06/06 05:53:42;;;;;;;0.75;0.75;;;16.30;99.90;;;;;;4972637;28;20193;-69
2021/06/06 05:56:10;;;;;;;0.60;0.60;;;16.40;99.90;;;;;;4971891;28;20109;-69
2021/06/06 05:58:36;;;;;;;0.52;0.52;;;16.40;99.90;;;;;;4972772;28;20023;-69
2021/06/06 06:01:03;;;;;;;0.50;0.50;;;16.40;99.90;;;;;;4971613;28;20030;-71
2021/06/06 06:03:29;;;;;;;0.47;0.47;;;16.40;99.90;;;;;;4972500;28;20497;-71
2021/06/06 06:05:55;;;;;;;0.57;0.57;;;16.30;99.90;;;;;;4972417;28;20038;-70
2021/06/06 06:08:34;;;;;;;0.50;0.50;;;16.30;99.90;;;;;;4972289;28;20049;-69
2021/06/06 06:11:00;;;;;;;0.50;0.50;;;16.20;99.90;;;;;;4976334;28;20030;-70
2021/06/06 06:13:28;;;;;;;0.40;0.40;;;15.90;99.90;;;;;;4978575;28;20027;-70
2021/06/06 06:15:55;;;;;;;1.52;0.70;;;15.70;99.90;;;;;;4977051;28;20033;-69
2021/06/06 06:18:23;;;;;;;0.52;0.52;;;15.80;99.90;;;;;;4976396;28;20441;-71
2021/06/06 06:20:49;;;;;;;0.80;0.50;;;15.80;99.90;;;;;;4967185;28;20681;-69
2021/06/06 06:23:15;;;;;;;1.75;0.60;;;15.70;99.90;;;;;;4978076;28;20111;-71
2021/06/06 06:25:41;;;;;;;1.33;0.70;;;15.70;99.90;;;;;;4968551;28;20107;-71
2021/06/06 06:28:07;;;;;;;0.75;0.50;;;15.70;99.90;;;;;;4966724;28;20026;-71
2021/06/06 06:30:35;;;;;;;0.85;0.43;;;15.60;99.90;;;;;;4977519;28;20027;-74
2021/06/06 06:33:02;;;;;;;0.40;0.40;;;15.60;99.90;;;;;;4978184;28;20031;-71
2021/06/06 06:35:29;;;;;;;1.92;0.60;;;15.70;99.90;;;;;;4978316;28;20091;-70
2021/06/06 06:37:55;;;;;;;0.85;0.50;;;15.60;99.90;;;;;;4978534;28;20027;-71
2021/06/06 06:40:22;;;;;;;0.73;0.50;;;15.50;99.90;;;;;;4977207;28;20041;-71
2021/06/06 06:42:49;;;;;;;0.63;0.50;;;15.70;99.90;;;;;;4976690;28;20123;-70
2021/06/06 06:45:19;;;;;;;0.50;0.50;;;15.70;99.90;;;;;;4977238;28;20019;-71
2021/06/06 06:47:45;;;;;;;2.45;0.60;;;15.60;99.90;;;;;;4978265;28;20564;-72
2021/06/06 06:50:15;;;;;;;1.63;0.60;;;15.60;99.90;;;;;;4977552;28;20106;-71
2021/06/06 06:52:40;;;;;;;1.00;0.75;;;15.50;99.90;;;;;;4977715;28;20400;-72
2021/06/06 06:55:08;;;;;;;0.93;0.55;;;15.60;99.90;;;;;;4978103;28;20041;-71
2021/06/06 06:57:34;;;;;;;1.33;0.82;;;15.70;99.90;;;;;;4979459;28;20039;-73
2021/06/06 06:59:59;;;;;;;0.77;0.60;;;15.70;99.90;;;;;;4970332;28;20038;-72
2021/06/06 07:02:26;;;;;;;1.83;0.80;;;15.70;99.90;;;;;;4990212;28;20078;-72
2021/06/06 07:04:52;;;;;;;2.38;0.50;;;15.60;99.90;;;;;;4994286;28;20306;-71
2021/06/06 07:07:18;;;;;;;0.88;0.65;;;15.40;99.90;;;;;;4988394;28;20057;-70
2021/06/06 07:09:43;;;;;;;1.50;0.75;;;15.30;99.90;;;;;;4957383;28;20027;-70
2021/06/06 07:12:09;;;;;;;1.35;0.80;;;15.30;99.90;;;;;;4958028;28;20385;-69
2021/06/06 07:14:35;;;;;;;3.53;0.75;;;15.40;99.90;;;;;;4958835;29;20106;-70
2021/06/06 07:17:01;;;;;;;0.75;0.73;;;15.60;99.90;;;;;;4958613;28;20194;-70
2021/06/06 07:19:27;;;;;;;2.63;1.10;;;15.70;99.90;;;;;;4958129;28;20031;-70
2021/06/06 07:21:53;;;;;;;2.40;0.88;;;15.40;99.90;;;;;;4957109;28;20086;-70
2021/06/06 07:24:19;;;;;;;1.42;0.85;;;15.50;99.90;;;;;;4955527;29;20031;-71
2021/06/06 07:26:47;;;;;;;2.88;1.02;;;15.40;99.90;;;;;;4955443;28;20024;-72
2021/06/06 07:29:15;;;;;;;1.25;0.90;;;15.50;99.90;;;;;;4955687;28;20038;-71
2021/06/06 07:31:43;;;;;;;1.75;1.08;;;15.50;99.90;;;;;;4967290;28;20117;-69
2021/06/06 07:34:10;;;;;;;2.22;0.90;;;15.80;99.90;;;;;;4974930;28;20027;-69
2021/06/06 07:36:35;;;;;;;3.78;1.52;;;15.90;99.90;;;;;;4974553;28;20054;-69
2021/06/06 07:39:02;;;;;;;1.00;0.90;;;15.90;99.90;;;;;;4974500;28;20760;-69
2021/06/06 07:41:28;;;;;;;1.85;1.10;;;15.90;99.90;;;;;;4973677;28;20022;-70
2021/06/06 07:43:56;;;;;;;2.55;1.05;;;16.00;99.90;;;;;;4974606;28;20033;-70
2021/06/06 07:46:22;;;;;;;1.20;1.10;;;16.20;99.90;;;;;;4974687;28;20426;-71
2021/06/06 07:48:48;;;;;;;2.05;1.20;;;16.50;99.90;;;;;;4973415;28;20055;-72
2021/06/06 07:51:14;;;;;;;1.02;1.02;;;16.40;99.90;;;;;;4953930;28;20039;-71
2021/06/06 07:53:39;;;;;;;2.55;1.20;;;16.00;99.90;;;;;;4955390;28;20043;-70
2021/06/06 07:56:06;;;;;;;2.00;1.30;;;16.00;99.90;;;;;;4954664;29;20193;-72
2021/06/06 07:58:35;;;;;;;2.35;1.70;;;16.10;99.90;;;;;;4954964;28;20069;-72
2021/06/06 08:01:01;;;;;;;3.85;1.33;;;16.10;99.90;;;;;;4964252;28;20034;-71
2021/06/06 08:03:29;;;;;;;1.75;1.10;;;16.10;99.90;;;;;;4974170;28;20027;-70
2021/06/06 08:05:57;;;;;;;1.77;1.42;;;16.00;99.90;;;;;;4975518;28;20033;-70
2021/06/06 08:08:22;;;;;;;2.70;1.42;;;15.90;99.90;;;;;;4975355;28;20033;-71
2021/06/06 08:10:53;;;;;;;1.92;1.33;;;16.00;99.90;;;;;;4974441;28;20105;-71
2021/06/06 08:13:20;;;;;;;4.00;1.63;;;16.10;99.90;;;;;;4973199;28;20108;-71
2021/06/06 08:15:46;;;;;;;3.75;1.77;;;16.20;99.90;;;;;;4973960;28;20027;-71
2021/06/06 08:18:17;;;;;;;3.60;1.30;;;16.20;99.90;;;;;;4974264;28;20035;-71
2021/06/06 08:21:08;;;;;;;2.22;2.03;;;15.90;99.90;;;;;;4973549;28;20104;-71
2021/06/06 08:23:35;;;;;;;3.15;2.03;;;15.60;99.90;;;;;;4973738;28;20078;-70
2021/06/06 08:26:01;;;;;;;4.72;1.90;;;15.60;99.90;;;;;;4974381;28;20162;-71
2021/06/06 08:28:27;;;;;;;3.47;1.88;;;15.70;99.90;;;;;;4973937;28;20102;-71
2021/06/06 08:30:57;;;;;;;3.28;2.30;;;15.80;99.90;;;;;;4973034;28;20029;-70
2021/06/06 08:33:26;;;;;;;2.20;1.90;;;15.90;99.90;;;;;;4973132;28;20667;-70
2021/06/06 08:35:55;;;;;;;3.22;2.33;;;15.90;99.90;;;;;;4973695;28;20027;-71
2021/06/06 08:38:22;;;;;;;5.32;2.28;;;15.90;99.90;;;;;;4973930;28;20023;-72
2021/06/06 08:41:08;;;;;;;2.30;2.10;;;15.90;99.90;;;;;;4972903;28;20109;-73
2021/06/06 08:44:02;;;;;;;3.90;1.95;;;16.10;99.90;;;;;;4973009;28;20031;-71
2021/06/06 08:46:34;;;;;;;5.22;3.50;;;15.90;99.90;;;;;;4955684;28;20066;-71
2021/06/06 08:49:01;;;;;;;6.65;4.40;;;16.00;99.90;;;;;;4973458;28;20051;-69
2021/06/06 08:51:47;;;;;;;9.63;6.70;;;16.20;99.90;;;;;;4972767;28;20030;-70
2021/06/06 08:54:31;;;;;;;15.70;8.02;;;16.10;99.90;;;;;;4973097;28;20034;-70
2021/06/06 08:57:04;;;;;;;17.92;10.32;;;16.20;99.90;;;;;;4972682;28;20041;-69
2021/06/06 08:59:38;;;;;;;17.10;10.82;;;16.20;99.90;;;;;;4972548;28;20034;-70
2021/06/06 09:02:18;;;;;;;17.95;10.02;;;16.30;99.90;;;;;;4971839;28;20073;-70
2021/06/06 09:04:44;;;;;;;15.48;7.85;;;16.30;99.90;;;;;;4973155;28;20033;-70
2021/06/06 09:07:31;;;;;;;7.45;3.92;;;16.30;99.90;;;;;;4972866;28;20385;-71
2021/06/06 09:10:03;;;;;;;4.93;3.83;;;16.10;99.90;;;;;;4972361;28;20381;-71
2021/06/06 09:12:28;;;;;;;2.88;2.55;;;15.90;99.90;;;;;;4972890;28;20467;-70
2021/06/06 09:14:55;;;;;;;4.68;3.25;;;16.00;99.90;;;;;;4972273;28;20043;-70
2021/06/06 09:17:47;;;;;;;9.95;3.83;;;16.20;99.90;;;;;;4971546;28;20568;-69
2021/06/06 09:20:29;;;;;;;4.63;3.53;;;16.20;99.90;;;;;;4963687;28;20545;-69
2021/06/06 09:23:11;;;;;;;3.63;3.20;;;15.90;99.90;;;;;;4972557;28;20027;-70
2021/06/06 09:25:40;;;;;;;5.63;4.10;;;15.90;99.90;;;;;;4972660;28;20026;-71
2021/06/06 09:28:24;;;;;;;7.07;5.18;;;16.10;99.90;;;;;;4972579;28;20029;-70
2021/06/06 09:31:25;;;;;;;8.70;5.72;;;16.20;99.90;;;;;;4972201;28;20057;-71
2021/06/06 09:33:54;;;;;;;14.52;8.68;;;16.40;99.90;;;;;;4931316;29;20526;-71
2021/06/06 09:36:28;;;;;;;9.10;6.85;;;16.50;99.90;;;;;;4965243;28;20046;-70
2021/06/06 09:39:05;;;;;;;11.00;6.43;;;16.50;99.90;;;;;;4972488;28;20050;-70
2021/06/06 09:41:37;;;;;;;11.75;7.40;;;16.60;99.90;;;;;;4971930;28;20167;-70
2021/06/06 09:44:15;;;;;;;13.93;9.00;;;16.60;99.90;;;;;;4970412;28;20023;-69
2021/06/06 09:46:43;;;;;;;21.83;11.93;;;16.70;99.90;;;;;;4971868;28;20872;-69
2021/06/06 09:49:33;;;;;;;21.13;12.25;;;16.90;99.90;;;;;;4972482;28;20030;-69
2021/06/06 09:52:40;;;;;;;20.55;11.10;;;16.90;99.90;;;;;;4972436;28;20038;-71
2021/06/06 09:55:23;;;;;;;20.25;12.30;;;16.90;99.90;;;;;;4970073;28;20405;-71
2021/06/06 09:57:52;;;;;;;19.45;11.57;;;16.80;99.90;;;;;;4971868;28;20142;-71
2021/06/06 10:00:25;;;;;;;20.02;12.13;;;16.60;99.90;;;;;;4970171;28;20027;-69
2021/06/06 10:03:00;;;;;;;21.30;11.98;;;16.60;99.90;;;;;;4972411;28;20027;-69
2021/06/06 10:05:40;;;;;;;22.20;12.13;;;16.50;99.90;;;;;;4971868;28;20050;-71
2021/06/06 10:08:16;;;;;;;20.73;12.63;;;16.60;99.90;;;;;;4972022;28;20031;-70
2021/06/06 10:10:47;;;;;;;24.05;14.40;;;16.50;99.90;;;;;;4971337;28;20019;-69
2021/06/06 10:13:17;;;;;;;26.05;14.65;;;16.50;99.90;;;;;;4971881;28;20027;-69
2021/06/06 10:15:49;;;;;;;22.88;14.00;;;16.60;99.90;;;;;;4970892;28;20510;-69
2021/06/06 10:18:26;;;;;;;24.98;14.20;;;16.50;99.90;;;;;;4972740;28;20148;-69
2021/06/06 10:20:58;;;;;;;24.98;14.57;;;16.60;99.90;;;;;;4983084;28;20552;-69
2021/06/06 10:23:34;;;;;;;28.23;15.75;;;16.70;99.90;;;;;;4972076;28;20034;-71
2021/06/06 10:26:33;;;;;;;28.58;16.70;;;16.80;99.90;;;;;;4971798;28;20138;-70
2021/06/06 10:29:23;;;;;;;29.98;17.20;;;17.00;99.90;;;;;;4972019;28;20106;-69
2021/06/06 10:31:51;;;;;;;25.23;15.65;;;17.30;99.90;;;;;;4971898;28;20027;-69
2021/06/06 10:34:29;;;;;;;25.73;16.50;;;17.20;99.90;;;;;;4971878;28;20385;-70
2021/06/06 10:36:55;;;;;;;22.23;13.88;;;17.30;99.90;;;;;;4971819;28;20038;-70
2021/06/06 10:39:24;;;;;;;23.30;13.57;;;17.30;99.90;;;;;;4971411;28;20031;-72
2021/06/06 10:42:13;;;;;;;21.52;13.77;;;17.20;99.90;;;;;;4971887;28;20374;-72
2021/06/06 10:44:42;;;;;;;22.83;15.07;;;17.30;99.90;;;;;;4972324;28;20105;-71
2021/06/06 10:47:28;;;;;;;28.00;16.73;;;17.40;99.90;;;;;;4971923;28;20027;-70
2021/06/06 10:50:01;;;;;;;26.25;14.02;;;17.30;99.90;;;;;;4970489;28;20041;-70
2021/06/06 10:52:38;;;;;;;26.15;13.63;;;17.20;99.90;;;;;;4971934;28;20375;-71
2021/06/06 10:55:20;;;;;;;24.83;15.07;;;17.00;99.90;;;;;;4971155;28;20031;-71
2021/06/06 10:57:46;;;;;;;24.05;14.88;;;17.00;99.90;;;;;;4974765;28;20481;-71
2021/06/06 11:00:14;;;;;;;25.33;15.25;;;17.00;99.90;;;;;;4974571;28;20045;-69
2021/06/06 11:02:49;;;;;;;26.83;16.33;;;17.20;99.90;;;;;;4973618;28;20027;-69
2021/06/06 11:05:35;;;;;;;22.55;14.27;;;17.30;99.90;;;;;;4975062;28;20030;-70
2021/06/06 11:08:03;;;;;;;18.52;13.30;;;17.40;99.90;;;;;;4973755;28;20055;-69
2021/06/06 11:10:36;;;;;;;16.90;12.05;;;17.20;99.90;;;;;;4974708;28;20030;-69
2021/06/06 11:13:13;;;;;;;17.85;12.57;;;17.10;99.90;;;;;;4973884;28;20137;-70
2021/06/06 11:16:01;;;;;;;19.55;14.05;;;17.30;99.90;;;;;;4955490;28;20038;-71
2021/06/06 11:18:28;;;;;;;15.38;10.82;;;17.50;99.90;;;;;;4955408;28;20386;-70
2021/06/06 11:21:06;;;;;;;13.75;10.90;;;17.40;99.90;;;;;;4954501;28;20051;-69
2021/06/06 11:23:34;;;;;;;15.13;10.38;;;17.40;99.90;;;;;;4955954;28;20371;-70
2021/06/06 11:26:13;;;;;;;16.13;11.13;;;17.40;99.90;;;;;;4954855;29;20032;-70
2021/06/06 11:28:40;;;;;;;15.90;12.25;;;17.20;99.90;;;;;;4955587;28;20031;-70
2021/06/06 11:31:26;;;;;;;16.77;12.40;;;17.20;99.90;;;;;;4954965;28;20027;-69
2021/06/06 11:34:22;;;;;;;17.48;12.13;;;16.90;99.90;;;;;;4957773;28;20063;-72
2021/06/06 11:36:48;;;;;;;16.63;12.82;;;16.90;99.90;;;;;;4974405;28;20031;-73
2021/06/06 11:39:18;;;;;;;19.05;14.10;;;17.00;99.90;;;;;;4974601;28;20054;-72
2021/06/06 11:41:46;;;;;;;17.67;12.82;;;16.90;99.90;;;;;;4973912;28;20033;-71
2021/06/06 11:44:47;;;;;;;20.65;14.07;;;17.10;99.90;;;;;;4974561;28;20086;-72
2021/06/06 11:47:48;;;;;;;24.13;16.65;;;17.30;99.90;;;;;;4973166;28;20020;-68
2021/06/06 11:50:26;;;;;;;20.17;15.50;;;17.40;99.90;;;;;;4959654;28;20454;-71
2021/06/06 11:53:10;;;;;;;22.38;15.82;;;17.40;99.90;;;;;;4963611;28;20027;-73
2021/06/06 11:55:50;;;;;;;19.90;14.95;;;17.50;99.90;;;;;;4973098;28;20027;-71
2021/06/06 11:58:35;;;;;;;21.23;15.73;;;17.50;99.90;;;;;;4974660;28;20493;-70
2021/06/06 12:01:12;;;;;;;20.17;14.85;;;17.60;99.90;;;;;;4952673;29;20035;-70
2021/06/06 12:03:41;;;;;;;24.77;17.42;;;17.50;99.90;;;;;;4955654;29;20039;-71
2021/06/06 12:06:14;;;;;;;22.65;15.63;;;17.50;99.90;;;;;;4954676;29;20023;-71
2021/06/06 12:08:43;;;;;;;25.27;17.00;;;17.40;99.90;;;;;;4953984;28;20031;-70
2021/06/06 12:11:31;;;;;;;24.25;17.85;;;17.50;99.90;;;;;;4970865;28;20029;-69
2021/06/06 12:14:35;;;;;;;21.88;16.33;;;17.60;99.90;;;;;;4974215;28;20046;-70
2021/06/06 12:17:16;;;;;;;25.63;17.75;;;17.60;99.90;;;;;;4933133;29;20028;-69
2021/06/06 12:19:47;;;;;;;23.83;16.88;;;17.60;99.90;;;;;;4932835;29;20023;-70
2021/06/06 12:22:22;;;;;;;29.50;19.30;;;17.90;99.90;;;;;;4957997;28;20121;-70
2021/06/06 12:25:01;;;;;;;29.63;19.48;;;18.00;99.90;;;;;;4973480;28;20118;-71
2021/06/06 12:27:30;;;;;;;29.13;19.02;;;18.10;99.90;;;;;;4974082;28;20030;-71
2021/06/06 12:29:59;;;;;;;29.70;19.73;;;18.20;99.90;;;;;;4973368;28;20469;-70
2021/06/06 12:32:28;;;;;;;30.25;20.25;;;18.40;99.90;;;;;;4973911;28;20033;-70
2021/06/06 12:34:55;;;;;;;30.45;20.42;;;18.50;99.90;;;;;;4974152;28;20034;-70
2021/06/06 12:37:26;;;;;;;29.13;20.08;;;18.80;99.90;;;;;;4969371;28;20061;-70
2021/06/06 12:39:55;;;;;;;30.20;21.08;;;19.00;99.90;;;;;;4970289;28;20050;-70
2021/06/06 12:42:23;;;;;;;34.22;22.13;;;19.10;99.90;;;;;;4973438;28;20101;-70
2021/06/06 12:44:52;;;;;;;38.97;24.40;;;19.20;99.90;;;;;;4973188;28;20053;-69
2021/06/06 12:47:37;;;;;;;40.90;24.02;;;18.70;99.90;;;;;;4973348;28;20037;-70
2021/06/06 12:50:14;;;;;;;38.78;24.33;;;18.60;99.90;;;;;;4973235;28;20023;-70
2021/06/06 12:52:53;;;;;;;33.58;23.48;;;19.00;99.90;;;;;;4973403;28;20166;-72
2021/06/06 12:55:23;;;;;;;33.28;22.77;;;18.90;99.90;;;;;;4972072;28;20162;-73
2021/06/06 12:58:01;;;;;;;28.17;19.77;;;18.80;99.90;;;;;;4973207;28;20042;-72
2021/06/06 13:00:33;;;;;;;32.63;21.80;;;19.00;99.90;;;;;;4972561;28;20023;-72
2021/06/06 13:03:00;;;;;;;31.57;20.20;;;19.30;99.90;;;;;;4973397;28;20093;-72